sensor_id;sensor_type;location;lat;lon;timestamp;P1;durP1;ratioP1;P2;durP2;ratioP2
67867;SDS011;54672;46.096;14.470;2022-12-10T00:01:10;26.23;;;12.48;;
67867;SDS011;54672;46.096;14.470;2022-12-10T00:03:37;28.40;;;12.95;;
67867;SDS011;54672;46.096;14.470;2022-12-10T00:06:04;30.20;;;12.65;;
67867;SDS011;54672;46.096;14.470;2022-12-10T00:08:32;29.90;;;13.23;;
67867;SDS011;54672;46.096;14.470;2022-12-10T00:10:58;28.08;;;13.27;;
67867;SDS011;54672;46.096;14.470;2022-12-10T00:13:24;29.88;;;14.52;;
67867;SDS011;54672;46.096;14.470;2022-12-10T00:15:49;31.13;;;13.30;;
67867;SDS011;54672;46.096;14.470;2022-12-10T00:18:14;30.55;;;13.00;;
67867;SDS011;54672;46.096;14.470;2022-12-10T00:20:40;24.48;;;12.48;;
67867;SDS011;54672;46.096;14.470;2022-12-10T00:23:05;28.80;;;13.20;;
67867;SDS011;54672;46.096;14.470;2022-12-10T00:25:31;26.95;;;12.93;;
67867;SDS011;54672;46.096;14.470;2022-12-10T00:27:57;24.70;;;12.98;;
67867;SDS011;54672;46.096;14.470;2022-12-10T00:30:23;24.25;;;12.23;;
67867;SDS011;54672;46.096;14.470;2022-12-10T00:32:48;22.60;;;11.63;;
67867;SDS011;54672;46.096;14.470;2022-12-10T00:35:14;23.77;;;11.90;;
67867;SDS011;54672;46.096;14.470;2022-12-10T00:37:39;24.15;;;11.20;;
67867;SDS011;54672;46.096;14.470;2022-12-10T00:40:05;22.45;;;10.93;;
67867;SDS011;54672;46.096;14.470;2022-12-10T00:42:31;25.00;;;10.82;;
67867;SDS011;54672;46.096;14.470;2022-12-10T00:44:56;23.80;;;10.68;;
67867;SDS011;54672;46.096;14.470;2022-12-10T00:47:21;22.80;;;11.85;;
67867;SDS011;54672;46.096;14.470;2022-12-10T00:49:47;20.23;;;10.63;;
67867;SDS011;54672;46.096;14.470;2022-12-10T00:52:12;26.92;;;12.50;;
67867;SDS011;54672;46.096;14.470;2022-12-10T00:54:37;23.30;;;11.02;;
67867;SDS011;54672;46.096;14.470;2022-12-10T00:57:03;23.67;;;11.57;;
67867;SDS011;54672;46.096;14.470;2022-12-10T00:59:28;25.15;;;11.77;;
67867;SDS011;54672;46.096;14.470;2022-12-10T01:01:54;24.45;;;11.38;;
67867;SDS011;54672;46.096;14.470;2022-12-10T01:04:19;27.17;;;12.93;;
67867;SDS011;54672;46.096;14.470;2022-12-10T01:06:45;28.65;;;12.23;;
67867;SDS011;54672;46.096;14.470;2022-12-10T01:09:24;24.50;;;12.38;;
67867;SDS011;54672;46.096;14.470;2022-12-10T01:11:52;24.00;;;10.85;;
67867;SDS011;54672;46.096;14.470;2022-12-10T01:14:20;22.55;;;10.48;;
67867;SDS011;54672;46.096;14.470;2022-12-10T01:16:48;21.90;;;10.63;;
67867;SDS011;54672;46.096;14.470;2022-12-10T01:19:14;17.55;;;8.52;;
67867;SDS011;54672;46.096;14.470;2022-12-10T01:21:40;21.88;;;9.77;;
67867;SDS011;54672;46.096;14.470;2022-12-10T01:24:05;22.45;;;9.73;;
67867;SDS011;54672;46.096;14.470;2022-12-10T01:26:32;23.25;;;10.32;;
67867;SDS011;54672;46.096;14.470;2022-12-10T01:28:59;23.17;;;11.20;;
67867;SDS011;54672;46.096;14.470;2022-12-10T01:33:50;22.55;;;11.35;;
67867;SDS011;54672;46.096;14.470;2022-12-10T01:36:20;25.35;;;11.73;;
67867;SDS011;54672;46.096;14.470;2022-12-10T01:38:48;22.88;;;11.65;;
67867;SDS011;54672;46.096;14.470;2022-12-10T01:41:16;27.02;;;11.52;;
67867;SDS011;54672;46.096;14.470;2022-12-10T01:43:48;26.05;;;12.73;;
67867;SDS011;54672;46.096;14.470;2022-12-10T01:46:14;27.77;;;13.18;;
67867;SDS011;54672;46.096;14.470;2022-12-10T01:48:39;21.63;;;10.88;;
67867;SDS011;54672;46.096;14.470;2022-12-10T01:51:05;30.05;;;13.02;;
67867;SDS011;54672;46.096;14.470;2022-12-10T01:53:31;23.40;;;9.93;;
67867;SDS011;54672;46.096;14.470;2022-12-10T01:55:57;20.65;;;10.10;;
67867;SDS011;54672;46.096;14.470;2022-12-10T01:58:22;27.88;;;9.95;;
67867;SDS011;54672;46.096;14.470;2022-12-10T02:00:57;22.13;;;10.20;;
67867;SDS011;54672;46.096;14.470;2022-12-10T02:03:36;27.50;;;11.37;;
67867;SDS011;54672;46.096;14.470;2022-12-10T02:11:52;45.25;;;10.50;;
67867;SDS011;54672;46.096;14.470;2022-12-10T02:14:28;19.15;;;7.88;;
67867;SDS011;54672;46.096;14.470;2022-12-10T02:17:24;31.55;;;9.07;;
67867;SDS011;54672;46.096;14.470;2022-12-10T02:20:01;29.27;;;10.18;;
67867;SDS011;54672;46.096;14.470;2022-12-10T02:22:40;26.13;;;9.10;;
67867;SDS011;54672;46.096;14.470;2022-12-10T02:25:11;27.27;;;10.75;;
67867;SDS011;54672;46.096;14.470;2022-12-10T02:30:17;26.70;;;10.45;;
67867;SDS011;54672;46.096;14.470;2022-12-10T02:32:43;22.15;;;9.63;;
67867;SDS011;54672;46.096;14.470;2022-12-10T02:35:22;23.83;;;10.23;;
67867;SDS011;54672;46.096;14.470;2022-12-10T02:37:59;22.45;;;9.38;;
67867;SDS011;54672;46.096;14.470;2022-12-10T02:40:34;20.65;;;9.88;;
67867;SDS011;54672;46.096;14.470;2022-12-10T02:43:02;20.80;;;9.80;;
67867;SDS011;54672;46.096;14.470;2022-12-10T02:45:28;25.10;;;10.82;;
67867;SDS011;54672;46.096;14.470;2022-12-10T02:47:59;24.58;;;10.50;;
67867;SDS011;54672;46.096;14.470;2022-12-10T02:50:26;21.92;;;9.60;;
67867;SDS011;54672;46.096;14.470;2022-12-10T02:52:52;25.20;;;10.55;;
67867;SDS011;54672;46.096;14.470;2022-12-10T02:55:17;19.45;;;9.32;;
67867;SDS011;54672;46.096;14.470;2022-12-10T03:00:29;18.95;;;9.25;;
67867;SDS011;54672;46.096;14.470;2022-12-10T03:08:30;24.42;;;10.30;;
67867;SDS011;54672;46.096;14.470;2022-12-10T03:11:13;23.63;;;10.35;;
67867;SDS011;54672;46.096;14.470;2022-12-10T03:13:43;28.30;;;11.70;;
67867;SDS011;54672;46.096;14.470;2022-12-10T03:16:10;23.35;;;10.18;;
67867;SDS011;54672;46.096;14.470;2022-12-10T03:18:37;20.73;;;9.20;;
67867;SDS011;54672;46.096;14.470;2022-12-10T03:21:04;18.48;;;8.65;;
67867;SDS011;54672;46.096;14.470;2022-12-10T03:23:32;21.02;;;9.27;;
67867;SDS011;54672;46.096;14.470;2022-12-10T03:26:00;21.65;;;8.73;;
67867;SDS011;54672;46.096;14.470;2022-12-10T03:28:27;21.17;;;9.60;;
67867;SDS011;54672;46.096;14.470;2022-12-10T03:30:58;33.13;;;10.00;;
67867;SDS011;54672;46.096;14.470;2022-12-10T03:33:23;52.63;;;11.50;;
67867;SDS011;54672;46.096;14.470;2022-12-10T03:35:49;73.75;;;12.10;;
67867;SDS011;54672;46.096;14.470;2022-12-10T03:38:15;61.28;;;11.95;;
67867;SDS011;54672;46.096;14.470;2022-12-10T03:40:41;36.78;;;11.07;;
67867;SDS011;54672;46.096;14.470;2022-12-10T03:43:07;29.85;;;10.63;;
67867;SDS011;54672;46.096;14.470;2022-12-10T03:45:32;27.02;;;11.85;;
67867;SDS011;54672;46.096;14.470;2022-12-10T03:47:58;23.58;;;11.25;;
67867;SDS011;54672;46.096;14.470;2022-12-10T03:50:23;25.35;;;10.90;;
67867;SDS011;54672;46.096;14.470;2022-12-10T03:52:49;21.35;;;10.07;;
67867;SDS011;54672;46.096;14.470;2022-12-10T03:55:14;22.55;;;10.00;;
67867;SDS011;54672;46.096;14.470;2022-12-10T03:57:40;23.10;;;9.88;;
67867;SDS011;54672;46.096;14.470;2022-12-10T04:00:06;23.55;;;11.02;;
67867;SDS011;54672;46.096;14.470;2022-12-10T04:02:32;23.75;;;10.45;;
67867;SDS011;54672;46.096;14.470;2022-12-10T04:04:57;24.88;;;10.57;;
67867;SDS011;54672;46.096;14.470;2022-12-10T04:07:23;22.45;;;10.52;;
67867;SDS011;54672;46.096;14.470;2022-12-10T04:09:48;22.58;;;11.02;;
67867;SDS011;54672;46.096;14.470;2022-12-10T04:12:13;24.92;;;10.40;;
67867;SDS011;54672;46.096;14.470;2022-12-10T04:14:39;26.73;;;10.68;;
67867;SDS011;54672;46.096;14.470;2022-12-10T04:17:23;23.20;;;10.35;;
67867;SDS011;54672;46.096;14.470;2022-12-10T04:19:49;20.65;;;10.00;;
67867;SDS011;54672;46.096;14.470;2022-12-10T04:22:14;22.60;;;9.77;;
67867;SDS011;54672;46.096;14.470;2022-12-10T04:24:58;18.08;;;9.43;;
67867;SDS011;54672;46.096;14.470;2022-12-10T04:27:42;22.20;;;9.00;;
67867;SDS011;54672;46.096;14.470;2022-12-10T04:30:09;20.08;;;9.27;;
67867;SDS011;54672;46.096;14.470;2022-12-10T04:32:35;19.55;;;9.57;;
67867;SDS011;54672;46.096;14.470;2022-12-10T04:35:01;19.95;;;9.68;;
67867;SDS011;54672;46.096;14.470;2022-12-10T04:37:28;17.58;;;9.20;;
67867;SDS011;54672;46.096;14.470;2022-12-10T04:39:53;20.08;;;9.13;;
67867;SDS011;54672;46.096;14.470;2022-12-10T04:42:19;19.67;;;9.38;;
67867;SDS011;54672;46.096;14.470;2022-12-10T04:44:46;18.75;;;9.02;;
67867;SDS011;54672;46.096;14.470;2022-12-10T04:47:11;25.27;;;11.27;;
67867;SDS011;54672;46.096;14.470;2022-12-10T04:49:37;23.63;;;9.77;;
67867;SDS011;54672;46.096;14.470;2022-12-10T04:52:04;19.90;;;9.57;;
67867;SDS011;54672;46.096;14.470;2022-12-10T04:54:30;19.90;;;8.98;;
67867;SDS011;54672;46.096;14.470;2022-12-10T04:56:56;22.50;;;8.90;;
67867;SDS011;54672;46.096;14.470;2022-12-10T04:59:21;23.40;;;9.90;;
67867;SDS011;54672;46.096;14.470;2022-12-10T05:01:46;22.48;;;9.82;;
67867;SDS011;54672;46.096;14.470;2022-12-10T05:04:13;18.70;;;9.02;;
67867;SDS011;54672;46.096;14.470;2022-12-10T05:06:40;27.08;;;10.50;;
67867;SDS011;54672;46.096;14.470;2022-12-10T05:09:06;34.83;;;10.75;;
67867;SDS011;54672;46.096;14.470;2022-12-10T05:11:33;29.13;;;10.13;;
67867;SDS011;54672;46.096;14.470;2022-12-10T05:13:59;21.50;;;9.85;;
67867;SDS011;54672;46.096;14.470;2022-12-10T05:16:26;47.90;;;11.80;;
67867;SDS011;54672;46.096;14.470;2022-12-10T05:18:54;29.27;;;10.88;;
67867;SDS011;54672;46.096;14.470;2022-12-10T05:21:20;28.23;;;10.55;;
67867;SDS011;54672;46.096;14.470;2022-12-10T05:23:49;25.83;;;10.25;;
67867;SDS011;54672;46.096;14.470;2022-12-10T05:26:18;28.73;;;10.57;;
67867;SDS011;54672;46.096;14.470;2022-12-10T05:31:16;35.97;;;11.40;;
67867;SDS011;54672;46.096;14.470;2022-12-10T05:33:44;34.00;;;11.02;;
67867;SDS011;54672;46.096;14.470;2022-12-10T05:36:10;30.17;;;10.52;;
67867;SDS011;54672;46.096;14.470;2022-12-10T05:38:37;35.55;;;12.77;;
67867;SDS011;54672;46.096;14.470;2022-12-10T05:41:04;31.48;;;11.68;;
67867;SDS011;54672;46.096;14.470;2022-12-10T05:43:31;30.70;;;11.20;;
67867;SDS011;54672;46.096;14.470;2022-12-10T05:46:06;29.15;;;10.65;;
67867;SDS011;54672;46.096;14.470;2022-12-10T05:48:34;28.75;;;10.73;;
67867;SDS011;54672;46.096;14.470;2022-12-10T05:51:07;32.15;;;11.68;;
67867;SDS011;54672;46.096;14.470;2022-12-10T05:53:35;34.28;;;13.15;;
67867;SDS011;54672;46.096;14.470;2022-12-10T05:56:02;28.10;;;12.07;;
67867;SDS011;54672;46.096;14.470;2022-12-10T05:58:30;35.95;;;12.93;;
67867;SDS011;54672;46.096;14.470;2022-12-10T06:00:56;27.05;;;12.13;;
67867;SDS011;54672;46.096;14.470;2022-12-10T06:03:22;30.17;;;13.57;;
67867;SDS011;54672;46.096;14.470;2022-12-10T06:05:48;37.25;;;16.58;;
67867;SDS011;54672;46.096;14.470;2022-12-10T06:08:13;33.50;;;15.68;;
67867;SDS011;54672;46.096;14.470;2022-12-10T06:10:38;44.47;;;19.50;;
67867;SDS011;54672;46.096;14.470;2022-12-10T06:13:04;40.78;;;16.63;;
67867;SDS011;54672;46.096;14.470;2022-12-10T06:15:30;39.78;;;17.48;;
67867;SDS011;54672;46.096;14.470;2022-12-10T06:17:57;35.90;;;16.80;;
67867;SDS011;54672;46.096;14.470;2022-12-10T06:20:23;33.97;;;16.45;;
67867;SDS011;54672;46.096;14.470;2022-12-10T06:22:49;35.55;;;16.45;;
67867;SDS011;54672;46.096;14.470;2022-12-10T06:25:15;31.55;;;16.35;;
67867;SDS011;54672;46.096;14.470;2022-12-10T06:27:40;35.45;;;15.70;;
67867;SDS011;54672;46.096;14.470;2022-12-10T06:30:06;32.15;;;16.42;;
67867;SDS011;54672;46.096;14.470;2022-12-10T06:32:32;30.00;;;13.82;;
67867;SDS011;54672;46.096;14.470;2022-12-10T06:34:57;29.45;;;14.50;;
67867;SDS011;54672;46.096;14.470;2022-12-10T06:37:23;28.27;;;13.35;;
67867;SDS011;54672;46.096;14.470;2022-12-10T06:39:50;24.45;;;13.20;;
67867;SDS011;54672;46.096;14.470;2022-12-10T06:42:21;24.65;;;13.52;;
67867;SDS011;54672;46.096;14.470;2022-12-10T06:44:46;29.42;;;13.05;;
67867;SDS011;54672;46.096;14.470;2022-12-10T06:47:12;30.42;;;12.88;;
67867;SDS011;54672;46.096;14.470;2022-12-10T06:49:39;26.02;;;12.48;;
67867;SDS011;54672;46.096;14.470;2022-12-10T06:52:05;27.50;;;13.13;;
67867;SDS011;54672;46.096;14.470;2022-12-10T06:54:31;32.67;;;13.85;;
67867;SDS011;54672;46.096;14.470;2022-12-10T06:56:56;31.10;;;15.38;;
67867;SDS011;54672;46.096;14.470;2022-12-10T06:59:22;30.30;;;15.15;;
67867;SDS011;54672;46.096;14.470;2022-12-10T07:01:48;28.33;;;14.15;;
67867;SDS011;54672;46.096;14.470;2022-12-10T07:04:13;28.65;;;15.00;;
67867;SDS011;54672;46.096;14.470;2022-12-10T07:06:39;32.40;;;15.40;;
67867;SDS011;54672;46.096;14.470;2022-12-10T07:09:04;33.78;;;16.42;;
67867;SDS011;54672;46.096;14.470;2022-12-10T07:11:30;35.25;;;16.27;;
67867;SDS011;54672;46.096;14.470;2022-12-10T07:13:56;42.92;;;18.30;;
67867;SDS011;54672;46.096;14.470;2022-12-10T07:16:27;52.70;;;21.83;;
67867;SDS011;54672;46.096;14.470;2022-12-10T07:18:55;50.60;;;23.08;;
67867;SDS011;54672;46.096;14.470;2022-12-10T07:21:23;55.55;;;24.70;;
67867;SDS011;54672;46.096;14.470;2022-12-10T07:24:00;48.58;;;24.73;;
67867;SDS011;54672;46.096;14.470;2022-12-10T07:26:28;44.72;;;21.08;;
67867;SDS011;54672;46.096;14.470;2022-12-10T07:28:55;43.38;;;20.38;;
67867;SDS011;54672;46.096;14.470;2022-12-10T07:31:21;40.78;;;19.10;;
67867;SDS011;54672;46.096;14.470;2022-12-10T07:33:47;37.22;;;18.95;;
67867;SDS011;54672;46.096;14.470;2022-12-10T07:36:13;20.63;;;9.68;;
67867;SDS011;54672;46.096;14.470;2022-12-10T07:38:39;28.20;;;12.98;;
67867;SDS011;54672;46.096;14.470;2022-12-10T07:41:05;28.77;;;14.50;;
67867;SDS011;54672;46.096;14.470;2022-12-10T07:43:34;34.80;;;16.63;;
67867;SDS011;54672;46.096;14.470;2022-12-10T07:48:30;28.92;;;14.02;;
67867;SDS011;54672;46.096;14.470;2022-12-10T07:50:56;26.33;;;13.70;;
67867;SDS011;54672;46.096;14.470;2022-12-10T07:53:22;25.58;;;12.30;;
67867;SDS011;54672;46.096;14.470;2022-12-10T07:55:48;23.05;;;11.25;;
67867;SDS011;54672;46.096;14.470;2022-12-10T07:58:13;22.35;;;9.57;;
67867;SDS011;54672;46.096;14.470;2022-12-10T08:00:39;21.42;;;10.57;;
67867;SDS011;54672;46.096;14.470;2022-12-10T08:03:04;20.00;;;10.02;;
67867;SDS011;54672;46.096;14.470;2022-12-10T08:05:29;19.67;;;9.80;;
67867;SDS011;54672;46.096;14.470;2022-12-10T08:07:55;20.25;;;9.30;;
67867;SDS011;54672;46.096;14.470;2022-12-10T08:10:20;19.58;;;10.45;;
67867;SDS011;54672;46.096;14.470;2022-12-10T08:12:45;21.08;;;10.63;;
67867;SDS011;54672;46.096;14.470;2022-12-10T08:15:11;19.23;;;10.10;;
67867;SDS011;54672;46.096;14.470;2022-12-10T08:17:36;19.73;;;10.75;;
67867;SDS011;54672;46.096;14.470;2022-12-10T08:20:01;19.77;;;10.15;;
67867;SDS011;54672;46.096;14.470;2022-12-10T08:22:27;22.77;;;11.25;;
67867;SDS011;54672;46.096;14.470;2022-12-10T08:24:52;25.73;;;11.85;;
67867;SDS011;54672;46.096;14.470;2022-12-10T08:27:18;18.83;;;9.98;;
67867;SDS011;54672;46.096;14.470;2022-12-10T08:29:43;19.50;;;10.50;;
67867;SDS011;54672;46.096;14.470;2022-12-10T08:32:08;20.20;;;10.88;;
67867;SDS011;54672;46.096;14.470;2022-12-10T08:34:34;21.80;;;10.13;;
67867;SDS011;54672;46.096;14.470;2022-12-10T08:36:59;20.67;;;9.48;;
67867;SDS011;54672;46.096;14.470;2022-12-10T08:39:24;20.63;;;10.02;;
67867;SDS011;54672;46.096;14.470;2022-12-10T08:41:50;18.02;;;8.40;;
67867;SDS011;54672;46.096;14.470;2022-12-10T08:44:15;17.98;;;8.68;;
67867;SDS011;54672;46.096;14.470;2022-12-10T08:46:41;15.27;;;8.10;;
67867;SDS011;54672;46.096;14.470;2022-12-10T08:49:06;15.20;;;7.63;;
67867;SDS011;54672;46.096;14.470;2022-12-10T08:51:32;18.48;;;8.75;;
67867;SDS011;54672;46.096;14.470;2022-12-10T08:53:57;26.48;;;12.30;;
67867;SDS011;54672;46.096;14.470;2022-12-10T08:56:23;11.07;;;6.13;;
67867;SDS011;54672;46.096;14.470;2022-12-10T08:58:48;17.58;;;7.47;;
67867;SDS011;54672;46.096;14.470;2022-12-10T09:01:15;16.35;;;6.72;;
67867;SDS011;54672;46.096;14.470;2022-12-10T09:03:42;14.52;;;7.07;;
67867;SDS011;54672;46.096;14.470;2022-12-10T09:06:09;11.60;;;5.28;;
67867;SDS011;54672;46.096;14.470;2022-12-10T09:08:36;7.75;;;4.20;;
67867;SDS011;54672;46.096;14.470;2022-12-10T09:11:09;7.10;;;3.38;;
67867;SDS011;54672;46.096;14.470;2022-12-10T09:13:41;5.32;;;3.17;;
67867;SDS011;54672;46.096;14.470;2022-12-10T09:16:07;7.80;;;4.40;;
67867;SDS011;54672;46.096;14.470;2022-12-10T09:18:33;7.70;;;4.40;;
67867;SDS011;54672;46.096;14.470;2022-12-10T09:20:58;7.55;;;2.97;;
67867;SDS011;54672;46.096;14.470;2022-12-10T09:23:23;8.10;;;4.32;;
67867;SDS011;54672;46.096;14.470;2022-12-10T09:25:49;4.18;;;2.58;;
67867;SDS011;54672;46.096;14.470;2022-12-10T09:28:14;8.00;;;3.25;;
67867;SDS011;54672;46.096;14.470;2022-12-10T09:30:40;7.25;;;3.80;;
67867;SDS011;54672;46.096;14.470;2022-12-10T09:33:05;6.93;;;3.65;;
67867;SDS011;54672;46.096;14.470;2022-12-10T09:35:31;5.97;;;3.05;;
67867;SDS011;54672;46.096;14.470;2022-12-10T09:37:56;8.90;;;4.78;;
67867;SDS011;54672;46.096;14.470;2022-12-10T09:40:24;5.75;;;2.95;;
67867;SDS011;54672;46.096;14.470;2022-12-10T09:43:04;6.72;;;3.70;;
67867;SDS011;54672;46.096;14.470;2022-12-10T09:46:09;4.20;;;2.10;;
67867;SDS011;54672;46.096;14.470;2022-12-10T09:51:22;5.25;;;2.80;;
67867;SDS011;54672;46.096;14.470;2022-12-10T09:53:51;8.38;;;4.05;;
67867;SDS011;54672;46.096;14.470;2022-12-10T09:56:34;9.20;;;4.30;;
67867;SDS011;54672;46.096;14.470;2022-12-10T09:59:10;7.15;;;4.25;;
67867;SDS011;54672;46.096;14.470;2022-12-10T10:01:42;8.80;;;4.35;;
67867;SDS011;54672;46.096;14.470;2022-12-10T10:04:09;6.00;;;3.25;;
67867;SDS011;54672;46.096;14.470;2022-12-10T10:06:35;9.80;;;5.00;;
67867;SDS011;54672;46.096;14.470;2022-12-10T10:09:01;6.53;;;3.55;;
67867;SDS011;54672;46.096;14.470;2022-12-10T10:11:28;5.47;;;2.63;;
67867;SDS011;54672;46.096;14.470;2022-12-10T10:14:16;5.22;;;2.63;;
67867;SDS011;54672;46.096;14.470;2022-12-10T10:17:03;5.18;;;2.63;;
67867;SDS011;54672;46.096;14.470;2022-12-10T10:19:35;5.22;;;2.75;;
67867;SDS011;54672;46.096;14.470;2022-12-10T10:22:03;4.45;;;2.40;;
67867;SDS011;54672;46.096;14.470;2022-12-10T10:24:40;5.22;;;2.10;;
67867;SDS011;54672;46.096;14.470;2022-12-10T10:29:44;3.45;;;2.33;;
67867;SDS011;54672;46.096;14.470;2022-12-10T10:34:45;3.05;;;1.80;;
67867;SDS011;54672;46.096;14.470;2022-12-10T10:37:45;4.07;;;2.20;;
67867;SDS011;54672;46.096;14.470;2022-12-10T10:40:20;4.43;;;2.30;;
67867;SDS011;54672;46.096;14.470;2022-12-10T10:42:47;4.55;;;2.17;;
67867;SDS011;54672;46.096;14.470;2022-12-10T10:48:06;14.73;;;4.75;;
67867;SDS011;54672;46.096;14.470;2022-12-10T10:50:36;12.05;;;4.13;;
67867;SDS011;54672;46.096;14.470;2022-12-10T10:53:18;6.57;;;3.50;;
67867;SDS011;54672;46.096;14.470;2022-12-10T10:55:51;7.30;;;3.53;;
67867;SDS011;54672;46.096;14.470;2022-12-10T10:58:19;9.70;;;4.18;;
67867;SDS011;54672;46.096;14.470;2022-12-10T11:01:00;7.35;;;3.80;;
67867;SDS011;54672;46.096;14.470;2022-12-10T11:03:28;4.95;;;2.63;;
67867;SDS011;54672;46.096;14.470;2022-12-10T11:05:55;3.53;;;2.22;;
67867;SDS011;54672;46.096;14.470;2022-12-10T11:08:23;7.38;;;3.25;;
67867;SDS011;54672;46.096;14.470;2022-12-10T11:10:58;6.38;;;3.72;;
67867;SDS011;54672;46.096;14.470;2022-12-10T11:13:30;3.35;;;2.08;;
67867;SDS011;54672;46.096;14.470;2022-12-10T11:18:30;5.07;;;2.65;;
67867;SDS011;54672;46.096;14.470;2022-12-10T11:21:04;6.43;;;2.40;;
67867;SDS011;54672;46.096;14.470;2022-12-10T11:23:39;4.72;;;2.92;;
67867;SDS011;54672;46.096;14.470;2022-12-10T11:34:20;6.40;;;2.58;;
67867;SDS011;54672;46.096;14.470;2022-12-10T11:37:21;6.82;;;3.50;;
67867;SDS011;54672;46.096;14.470;2022-12-10T11:42:43;5.35;;;2.78;;
67867;SDS011;54672;46.096;14.470;2022-12-10T11:58:38;3.80;;;1.35;;
67867;SDS011;54672;46.096;14.470;2022-12-10T12:14:36;4.93;;;2.45;;
67867;SDS011;54672;46.096;14.470;2022-12-10T12:17:24;4.47;;;2.50;;
67867;SDS011;54672;46.096;14.470;2022-12-10T12:19:53;8.20;;;2.78;;
67867;SDS011;54672;46.096;14.470;2022-12-10T12:22:34;4.80;;;2.90;;
67867;SDS011;54672;46.096;14.470;2022-12-10T12:25:16;5.93;;;3.03;;
67867;SDS011;54672;46.096;14.470;2022-12-10T12:27:48;20.88;;;10.85;;
67867;SDS011;54672;46.096;14.470;2022-12-10T12:30:19;16.23;;;7.80;;
67867;SDS011;54672;46.096;14.470;2022-12-10T12:35:18;14.65;;;7.63;;
67867;SDS011;54672;46.096;14.470;2022-12-10T12:38:01;8.52;;;4.22;;
67867;SDS011;54672;46.096;14.470;2022-12-10T12:41:16;17.33;;;9.10;;
67867;SDS011;54672;46.096;14.470;2022-12-10T12:46:00;12.60;;;6.40;;
67867;SDS011;54672;46.096;14.470;2022-12-10T12:48:38;105.10;;;54.70;;
67867;SDS011;54672;46.096;14.470;2022-12-10T12:53:58;9.30;;;5.15;;
67867;SDS011;54672;46.096;14.470;2022-12-10T12:59:18;4.38;;;2.20;;
67867;SDS011;54672;46.096;14.470;2022-12-10T13:01:57;5.57;;;2.88;;
67867;SDS011;54672;46.096;14.470;2022-12-10T13:04:27;7.18;;;2.83;;
67867;SDS011;54672;46.096;14.470;2022-12-10T13:09:50;5.80;;;3.22;;
67867;SDS011;54672;46.096;14.470;2022-12-10T13:19:49;7.07;;;3.85;;
67867;SDS011;54672;46.096;14.470;2022-12-10T13:25:11;8.48;;;4.43;;
67867;SDS011;54672;46.096;14.470;2022-12-10T13:27:42;10.52;;;5.32;;
67867;SDS011;54672;46.096;14.470;2022-12-10T13:33:10;11.07;;;6.40;;
67867;SDS011;54672;46.096;14.470;2022-12-10T13:35:50;5.75;;;3.03;;
67867;SDS011;54672;46.096;14.470;2022-12-10T13:38:23;6.05;;;3.25;;
67867;SDS011;54672;46.096;14.470;2022-12-10T13:40:57;7.65;;;3.63;;
67867;SDS011;54672;46.096;14.470;2022-12-10T13:46:36;8.48;;;4.03;;
67867;SDS011;54672;46.096;14.470;2022-12-10T13:49:35;10.93;;;4.75;;
67867;SDS011;54672;46.096;14.470;2022-12-10T13:52:29;9.80;;;3.75;;
67867;SDS011;54672;46.096;14.470;2022-12-10T13:58:32;6.57;;;3.40;;
67867;SDS011;54672;46.096;14.470;2022-12-10T14:08:26;6.15;;;3.00;;
67867;SDS011;54672;46.096;14.470;2022-12-10T14:10:55;6.65;;;3.55;;
67867;SDS011;54672;46.096;14.470;2022-12-10T14:13:27;6.80;;;3.80;;
67867;SDS011;54672;46.096;14.470;2022-12-10T14:16:04;6.40;;;3.50;;
67867;SDS011;54672;46.096;14.470;2022-12-10T14:18:34;5.85;;;3.75;;
67867;SDS011;54672;46.096;14.470;2022-12-10T14:21:02;7.45;;;3.47;;
67867;SDS011;54672;46.096;14.470;2022-12-10T14:23:31;7.07;;;3.75;;
67867;SDS011;54672;46.096;14.470;2022-12-10T14:25:58;13.13;;;6.55;;
67867;SDS011;54672;46.096;14.470;2022-12-10T14:28:29;22.55;;;11.55;;
67867;SDS011;54672;46.096;14.470;2022-12-10T14:30:55;11.00;;;5.63;;
67867;SDS011;54672;46.096;14.470;2022-12-10T14:33:21;9.95;;;5.53;;
67867;SDS011;54672;46.096;14.470;2022-12-10T14:35:49;7.03;;;3.75;;
67867;SDS011;54672;46.096;14.470;2022-12-10T14:38:48;9.75;;;4.68;;
67867;SDS011;54672;46.096;14.470;2022-12-10T14:41:18;8.98;;;4.50;;
67867;SDS011;54672;46.096;14.470;2022-12-10T14:43:46;25.65;;;11.70;;
67867;SDS011;54672;46.096;14.470;2022-12-10T14:46:13;18.15;;;8.07;;
67867;SDS011;54672;46.096;14.470;2022-12-10T14:48:42;12.25;;;7.47;;
67867;SDS011;54672;46.096;14.470;2022-12-10T14:51:12;12.35;;;5.13;;
67867;SDS011;54672;46.096;14.470;2022-12-10T14:53:40;8.80;;;5.57;;
67867;SDS011;54672;46.096;14.470;2022-12-10T14:56:06;5.53;;;3.65;;
67867;SDS011;54672;46.096;14.470;2022-12-10T14:58:38;4.63;;;2.55;;
67867;SDS011;54672;46.096;14.470;2022-12-10T15:01:16;5.63;;;2.50;;
67867;SDS011;54672;46.096;14.470;2022-12-10T15:03:53;18.30;;;10.35;;
67867;SDS011;54672;46.096;14.470;2022-12-10T15:06:20;6.40;;;3.60;;
67867;SDS011;54672;46.096;14.470;2022-12-10T15:08:46;6.57;;;3.20;;
67867;SDS011;54672;46.096;14.470;2022-12-10T15:11:19;8.23;;;3.17;;
67867;SDS011;54672;46.096;14.470;2022-12-10T15:13:46;10.13;;;3.97;;
67867;SDS011;54672;46.096;14.470;2022-12-10T15:16:19;6.18;;;3.70;;
67867;SDS011;54672;46.096;14.470;2022-12-10T15:18:52;5.30;;;2.55;;
67867;SDS011;54672;46.096;14.470;2022-12-10T15:21:20;5.25;;;2.85;;
67867;SDS011;54672;46.096;14.470;2022-12-10T15:23:47;4.30;;;2.60;;
67867;SDS011;54672;46.096;14.470;2022-12-10T15:28:50;5.28;;;2.80;;
67867;SDS011;54672;46.096;14.470;2022-12-10T15:36:50;4.75;;;2.70;;
67867;SDS011;54672;46.096;14.470;2022-12-10T15:39:27;1.70;;;1.10;;
67867;SDS011;54672;46.096;14.470;2022-12-10T15:42:26;1.52;;;1.25;;
67867;SDS011;54672;46.096;14.470;2022-12-10T15:44:56;2.40;;;1.45;;
67867;SDS011;54672;46.096;14.470;2022-12-10T15:47:25;2.00;;;1.38;;
67867;SDS011;54672;46.096;14.470;2022-12-10T15:49:52;2.78;;;1.33;;
67867;SDS011;54672;46.096;14.470;2022-12-10T15:52:21;2.30;;;1.27;;
67867;SDS011;54672;46.096;14.470;2022-12-10T15:54:50;3.42;;;1.35;;
67867;SDS011;54672;46.096;14.470;2022-12-10T15:57:18;3.10;;;1.75;;
67867;SDS011;54672;46.096;14.470;2022-12-10T15:59:47;5.28;;;2.38;;
67867;SDS011;54672;46.096;14.470;2022-12-10T16:02:20;5.90;;;2.65;;
67867;SDS011;54672;46.096;14.470;2022-12-10T16:04:52;7.28;;;3.47;;
67867;SDS011;54672;46.096;14.470;2022-12-10T16:07:18;8.68;;;4.90;;
67867;SDS011;54672;46.096;14.470;2022-12-10T16:09:44;8.10;;;3.85;;
67867;SDS011;54672;46.096;14.470;2022-12-10T16:12:13;6.18;;;3.42;;
67867;SDS011;54672;46.096;14.470;2022-12-10T16:14:42;4.80;;;2.25;;
67867;SDS011;54672;46.096;14.470;2022-12-10T16:17:12;4.28;;;1.90;;
67867;SDS011;54672;46.096;14.470;2022-12-10T16:19:38;2.88;;;1.70;;
67867;SDS011;54672;46.096;14.470;2022-12-10T16:22:04;3.83;;;1.98;;
67867;SDS011;54672;46.096;14.470;2022-12-10T16:24:30;3.67;;;1.70;;
67867;SDS011;54672;46.096;14.470;2022-12-10T16:26:55;5.50;;;2.00;;
67867;SDS011;54672;46.096;14.470;2022-12-10T16:29:21;4.43;;;2.08;;
67867;SDS011;54672;46.096;14.470;2022-12-10T16:31:46;4.63;;;2.10;;
67867;SDS011;54672;46.096;14.470;2022-12-10T16:34:12;2.60;;;1.70;;
67867;SDS011;54672;46.096;14.470;2022-12-10T16:36:37;5.82;;;2.60;;